Time;durP1;ratioP1;P1;durP2;ratioP2;P2;SDS_P1;SDS_P2;PMS_P1;PMS_P2;Temp;Humidity;BMP_temperature;BMP_pressure;BME280_temperature;BME280_humidity;BME280_pressure;Samples;Min_cycle;Max_cycle;Signal;HPM_P1;HPM_P2
2024/03/20 00:01:48;;;;;;;13.80;10.00;;;;;;;1.05;85.94;100087.36;106709;1254;61355;-78
2024/03/20 00:04:15;;;;;;;13.70;9.90;;;;;;;1.11;85.88;100085.94;105890;1251;61238;-75
2024/03/20 00:06:42;;;;;;;13.60;10.90;;;;;;;1.16;85.48;100082.11;105970;1254;74784;-76
2024/03/20 00:09:09;;;;;;;15.40;12.80;;;;;;;1.07;85.49;100084.41;106551;1251;61334;-75
2024/03/20 00:11:35;;;;;;;16.30;11.20;;;;;;;0.95;85.60;100083.48;105958;1257;61760;-77
2024/03/20 00:14:05;;;;;;;15.20;11.60;;;;;;;0.86;86.13;100080.54;105898;1256;61311;-78
2024/03/20 00:16:31;;;;;;;17.60;10.80;;;;;;;0.83;86.70;100081.25;106344;1251;61330;-78
2024/03/20 00:18:58;;;;;;;11.50;9.30;;;;;;;0.92;86.92;100076.00;106394;1250;75396;-79
2024/03/20 00:21:26;;;;;;;12.60;10.30;;;;;;;1.02;86.51;100071.31;108776;1251;68989;-77
2024/03/20 00:23:53;;;;;;;11.50;10.10;;;;;;;1.02;86.77;100069.56;106254;1256;71757;-78
2024/03/20 00:26:20;;;;;;;16.20;12.30;;;;;;;0.99;87.08;100064.73;106710;1251;61374;-79
2024/03/20 00:28:47;;;;;;;14.30;11.40;;;;;;;0.98;87.74;100064.05;106209;1254;61266;-76
2024/03/20 00:31:13;;;;;;;13.50;9.40;;;;;;;1.02;88.07;100063.16;105663;1254;304623;-76
2024/03/20 00:35:33;;;;;;;13.90;10.20;;;;;;;1.19;87.93;100058.36;103064;1292;600328;-76
2024/03/20 00:38:00;;;;;;;13.80;9.80;;;;;;;1.19;88.12;100056.63;105216;1266;59680;-79
2024/03/20 00:40:27;;;;;;;12.60;10.30;;;;;;;1.18;88.57;100058.78;105470;1267;59595;-76
2024/03/20 00:42:55;;;;;;;15.00;10.60;;;;;;;1.17;88.77;100053.97;104912;1267;73460;-80
2024/03/20 00:45:22;;;;;;;15.60;8.90;;;;;;;1.25;88.77;100051.35;106072;1257;69234;-77
2024/03/20 00:47:50;;;;;;;13.30;9.10;;;;;;;1.33;88.31;100048.88;106114;1264;74474;-78
2024/03/20 00:50:17;;;;;;;11.60;8.70;;;;;;;1.33;88.16;100049.40;106639;1255;173688;-79
2024/03/20 00:52:44;;;;;;;11.00;8.10;;;;;;;1.30;88.49;100048.92;108479;1254;59247;-78
2024/03/20 00:55:19;;;;;;;14.80;10.30;;;;;;;1.26;88.89;100047.98;107979;1254;71755;-77
2024/03/20 00:57:47;;;;;;;13.70;9.60;;;;;;;1.24;88.94;100052.27;106799;1257;70440;-79
2024/03/20 01:00:17;;;;;;;12.30;8.90;;;;;;;1.29;88.68;100050.35;107138;1259;71827;-77
2024/03/20 01:02:45;;;;;;;11.50;8.40;;;;;;;1.37;88.68;100058.73;106416;1259;60395;-77
2024/03/20 01:05:13;;;;;;;12.60;8.20;;;;;;;1.36;88.93;100059.70;106024;1254;61136;-77
2024/03/20 01:07:40;;;;;;;13.40;9.50;;;;;;;1.32;89.25;100059.04;105783;1254;73975;-78
2024/03/20 01:10:08;;;;;;;14.40;9.30;;;;;;;1.29;89.30;100057.89;106098;1254;68695;-79
2024/03/20 01:12:35;;;;;;;15.50;10.10;;;;;;;1.26;89.26;100056.02;106819;1254;72666;-79
2024/03/20 01:15:06;;;;;;;12.40;8.70;;;;;;;1.29;89.23;100056.96;106450;1254;60288;-77
2024/03/20 01:17:33;;;;;;;11.80;8.40;;;;;;;1.36;89.00;100061.98;106603;1256;60574;-79
2024/03/20 01:20:01;;;;;;;12.30;9.20;;;;;;;1.32;89.23;100060.84;106435;1259;72666;-79
2024/03/20 01:22:35;;;;;;;13.90;9.50;;;;;;;1.27;89.48;100064.10;106098;1254;69170;-77
2024/03/20 01:25:03;;;;;;;13.10;9.70;;;;;;;1.24;89.84;100064.48;105787;1257;71352;-76
2024/03/20 01:27:31;;;;;;;12.00;8.90;;;;;;;1.20;89.81;100062.64;105645;1256;61019;-77
2024/03/20 01:29:58;;;;;;;10.50;7.60;;;;;;;1.24;89.51;100057.19;105418;1256;60566;-76
2024/03/20 01:32:25;;;;;;;12.10;8.60;;;;;;;1.30;89.23;100054.16;105806;1260;74798;-78
2024/03/20 01:34:52;;;;;;;12.90;9.50;;;;;;;1.27;89.20;100052.40;106098;1254;70947;-77
2024/03/20 01:37:20;;;;;;;18.90;12.90;;;;;;;1.21;89.43;100051.41;105924;1259;71410;-76
2024/03/20 01:39:48;;;;;;;37.90;19.90;;;;;;;1.17;89.70;100047.52;105765;1254;60402;-77
2024/03/20 01:42:15;;;;;;;42.30;23.50;;;;;;;1.12;89.74;100049.72;105834;1254;60451;-79
2024/03/20 01:44:42;;;;;;;31.50;18.80;;;;;;;1.19;89.74;100049.80;105832;1254;73877;-78
2024/03/20 01:47:09;;;;;;;21.90;13.40;;;;;;;1.27;89.47;100049.29;107114;1254;70390;-76
2024/03/20 01:49:38;;;;;;;21.30;13.90;;;;;;;1.23;89.21;100051.65;107920;1254;71472;-76
2024/03/20 01:52:06;;;;;;;14.90;10.30;;;;;;;1.18;89.26;100052.34;106852;1256;60958;-75
2024/03/20 01:54:33;;;;;;;15.00;10.70;;;;;;;1.13;89.22;100051.59;106650;1254;61025;-74
2024/03/20 01:57:01;;;;;;;15.20;10.00;;;;;;;1.08;89.35;100050.38;106780;1255;73855;-76
2024/03/20 01:59:28;;;;;;;12.80;8.90;;;;;;;1.14;89.30;100047.02;107001;1254;70671;-76
2024/03/20 02:01:56;;;;;;;12.20;9.30;;;;;;;1.22;89.00;100048.91;106907;1259;71307;-76
2024/03/20 02:04:23;;;;;;;19.70;10.60;;;;;;;1.23;89.03;100048.67;106240;1260;60530;-78
2024/03/20 02:06:50;;;;;;;11.90;9.20;;;;;;;1.21;89.06;100045.02;106669;1254;60280;-78
2024/03/20 02:09:17;;;;;;;16.50;11.60;;;;;;;1.17;88.97;100040.13;106619;1254;73957;-77
2024/03/20 02:11:45;;;;;;;13.60;10.30;;;;;;;1.14;88.85;100037.53;107464;1254;69966;-76
2024/03/20 02:14:12;;;;;;;17.30;10.70;;;;;;;1.19;88.73;100033.20;107598;1254;71770;-79
2024/03/20 02:16:39;;;;;;;15.70;11.30;;;;;;;1.26;88.23;100031.20;105917;1261;60460;-75
2024/03/20 02:19:07;;;;;;;16.70;12.30;;;;;;;1.24;88.16;100030.45;105952;1256;60564;-76
2024/03/20 02:21:34;;;;;;;22.30;13.70;;;;;;;1.19;88.25;100027.65;106312;1256;72576;-77
2024/03/20 02:24:05;;;;;;;16.20;11.50;;;;;;;1.16;88.51;100026.98;106525;1256;70297;-79
2024/03/20 02:26:33;;;;;;;16.60;9.80;;;;;;;1.12;88.56;100028.28;107573;1255;73695;-77
2024/03/20 02:29:00;;;;;;;18.60;11.30;;;;;;;1.16;88.44;100029.59;107503;1260;60463;-77
2024/03/20 02:31:27;;;;;;;13.90;10.10;;;;;;;1.23;88.23;100030.00;106263;1259;60667;-76
2024/03/20 02:33:55;;;;;;;15.40;9.60;;;;;;;1.21;88.32;100032.74;106492;1253;72833;-76
2024/03/20 02:36:22;;;;;;;13.90;10.20;;;;;;;1.16;88.31;100029.45;106679;1253;69091;-77
2024/03/20 02:38:50;;;;;;;14.90;10.80;;;;;;;1.10;88.26;100029.99;106612;1253;71284;-76
2024/03/20 02:41:18;;;;;;;12.80;9.20;;;;;;;1.04;88.43;100031.95;106235;1259;60624;-77
2024/03/20 02:43:45;;;;;;;10.50;8.40;;;;;;;1.07;88.21;100034.56;107384;1255;59106;-75
2024/03/20 02:46:13;;;;;;;11.50;8.30;;;;;;;1.12;88.33;100031.27;107659;1253;72651;-74
2024/03/20 02:48:40;;;;;;;13.00;8.20;;;;;;;1.12;88.30;100034.76;106773;1252;69922;-78
2024/03/20 02:51:07;;;;;;;11.60;8.60;;;;;;;1.05;88.28;100033.81;109039;1253;72256;-78
2024/03/20 02:53:34;;;;;;;9.40;7.20;;;;;;;0.97;88.40;100034.45;109251;1253;59050;-79
2024/03/20 02:56:02;;;;;;;11.60;7.60;;;;;;;0.94;88.57;100035.58;109420;1253;59267;-77
2024/03/20 02:58:29;;;;;;;9.50;6.90;;;;;;;1.01;88.42;100035.12;109437;1252;72659;-78
2024/03/20 03:00:57;;;;;;;9.20;7.00;;;;;;;1.10;88.09;100042.20;109325;1253;69028;-77
2024/03/20 03:03:24;;;;;;;8.80;7.00;;;;;;;1.08;88.03;100043.53;109143;1253;71407;-77
2024/03/20 03:05:51;;;;;;;10.00;7.30;;;;;;;1.06;88.42;100043.36;108930;1252;58180;-77
2024/03/20 03:08:19;;;;;;;9.90;8.50;;;;;;;1.03;88.71;100039.54;108599;1253;59488;-76
2024/03/20 03:10:46;;;;;;;11.20;8.00;;;;;;;0.98;88.83;100041.21;108728;1251;71620;-77
2024/03/20 03:13:14;;;;;;;9.60;7.50;;;;;;;1.05;88.76;100041.16;109141;1253;68688;-76
2024/03/20 03:15:42;;;;;;;9.20;7.40;;;;;;;1.12;88.62;100038.92;109256;1253;70499;-76
2024/03/20 03:18:09;;;;;;;10.30;7.00;;;;;;;1.11;88.75;100043.36;109159;1252;58313;-77
2024/03/20 03:20:36;;;;;;;8.90;6.90;;;;;;;1.03;88.89;100048.23;108865;1253;59390;-76
2024/03/20 03:23:03;;;;;;;10.20;7.40;;;;;;;0.97;89.55;100047.06;109289;1253;72562;-77
2024/03/20 03:25:31;;;;;;;9.50;7.40;;;;;;;1.06;89.90;100048.02;109155;1253;68727;-77
2024/03/20 03:27:58;;;;;;;11.40;8.70;;;;;;;1.20;90.02;100049.41;109152;1253;71563;-78
2024/03/20 03:30:25;;;;;;;10.20;7.90;;;;;;;1.25;90.26;100050.11;109182;1253;58889;-75
2024/03/20 03:32:53;;;;;;;13.80;8.50;;;;;;;1.28;90.92;100047.83;109445;1253;59088;-78
2024/03/20 03:35:21;;;;;;;14.10;8.70;;;;;;;1.30;91.33;100045.42;109337;1252;72922;-75
2024/03/20 03:37:48;;;;;;;13.00;8.80;;;;;;;1.40;91.34;100047.40;109329;1252;68712;-78
2024/03/20 03:40:16;;;;;;;12.30;8.80;;;;;;;1.55;91.47;100051.80;109296;1252;71043;-77
2024/03/20 03:42:43;;;;;;;16.70;9.60;;;;;;;1.63;91.96;100053.36;109300;1252;59355;-76
2024/03/20 03:45:11;;;;;;;16.70;9.90;;;;;;;1.65;92.18;100052.50;109340;1252;60251;-76
2024/03/20 03:47:38;;;;;;;12.80;9.80;;;;;;;1.69;92.63;100052.77;109337;1252;72473;-76
2024/03/20 03:50:07;;;;;;;14.00;9.50;;;;;;;1.83;92.38;100056.56;109064;1253;68732;-77
2024/03/20 03:52:35;;;;;;;12.10;9.70;;;;;;;1.96;92.03;100058.79;108669;1253;71405;-75
2024/03/20 03:55:04;;;;;;;18.40;10.60;;;;;;;2.03;92.49;100054.86;108829;1252;59622;-75
2024/03/20 03:57:33;;;;;;;14.40;10.30;;;;;;;2.03;92.44;100057.27;109054;1253;60308;-78
2024/03/20 04:00:01;;;;;;;18.40;11.60;;;;;;;2.02;92.34;100059.48;109203;1252;74828;-78
2024/03/20 04:02:35;;;;;;;14.60;10.40;;;;;;;2.04;92.68;100056.86;109411;1252;68912;-77
2024/03/20 04:05:04;;;;;;;13.30;9.70;;;;;;;2.13;92.18;100051.86;109433;1253;71568;-76
2024/03/20 04:07:31;;;;;;;13.00;9.40;;;;;;;2.24;92.24;100051.67;109262;1253;58981;-77
2024/03/20 04:09:59;;;;;;;16.60;9.80;;;;;;;2.26;92.34;100049.44;109025;1252;58887;-77
2024/03/20 04:12:26;;;;;;;22.40;12.60;;;;;;;2.18;92.04;100045.25;108853;1255;74593;-75
2024/03/20 04:14:53;;;;;;;16.60;11.00;;;;;;;2.11;92.07;100043.66;109273;1253;69704;-79
2024/03/20 04:17:21;;;;;;;13.20;9.40;;;;;;;2.14;92.23;100048.98;109456;1253;71429;-78
2024/03/20 04:19:48;;;;;;;13.10;9.70;;;;;;;2.22;92.15;100045.66;108786;1253;58886;-76
2024/03/20 04:22:16;;;;;;;13.90;9.00;;;;;;;2.21;92.44;100045.57;108980;1253;58904;-76
2024/03/20 04:24:46;;;;;;;28.60;18.00;;;;;;;2.22;93.04;100045.83;109118;1252;72550;-75
2024/03/20 04:27:15;;;;;;;12.90;9.30;;;;;;;2.26;93.37;100048.67;108881;1253;69027;-79
2024/03/20 04:29:42;;;;;;;11.90;9.00;;;;;;;2.35;92.76;100051.19;109079;1253;71602;-78
2024/03/20 04:32:10;;;;;;;10.60;9.10;;;;;;;2.45;92.36;100058.23;109021;1252;58777;-78
2024/03/20 04:34:37;;;;;;;10.20;8.60;;;;;;;2.48;92.80;100058.16;109201;1251;61259;-80
2024/03/20 04:37:04;;;;;;;12.20;8.90;;;;;;;2.49;92.96;100062.33;108714;1252;73699;-79
2024/03/20 04:39:35;;;;;;;13.90;11.40;;;;;;;2.48;93.10;100058.31;108743;1253;70638;-75
2024/03/20 04:42:04;;;;;;;11.40;9.90;;;;;;;2.51;93.15;100059.04;109065;1252;72902;-74
2024/03/20 04:44:31;;;;;;;11.50;9.60;;;;;;;2.61;92.97;100062.32;109210;1253;59629;-76
2024/03/20 04:46:58;;;;;;;11.90;8.80;;;;;;;2.70;92.69;100070.58;108736;1253;61091;-78
2024/03/20 04:49:25;;;;;;;11.00;9.40;;;;;;;2.75;93.42;100073.02;109017;1253;73419;-77
2024/03/20 04:51:53;;;;;;;11.40;9.20;;;;;;;2.78;93.11;100077.56;108865;1253;68743;-77
2024/03/20 04:54:20;;;;;;;12.00;8.30;;;;;;;2.77;93.00;100078.87;108777;1253;71729;-76
2024/03/20 04:56:53;;;;;;;10.10;7.80;;;;;;;2.88;92.84;100080.30;108781;1255;61602;-76
2024/03/20 04:59:20;;;;;;;11.20;8.80;;;;;;;2.97;92.39;100082.47;108936;1253;58716;-77
2024/03/20 05:01:47;;;;;;;11.00;8.50;;;;;;;2.99;92.46;100083.77;108514;1253;73438;-75
2024/03/20 05:04:14;;;;;;;12.10;8.70;;;;;;;2.96;92.48;100087.98;108636;1253;69956;-77
2024/03/20 05:06:42;;;;;;;11.90;8.30;;;;;;;2.92;92.36;100081.76;109030;1253;71869;-78
2024/03/20 05:09:09;;;;;;;10.20;8.40;;;;;;;2.94;91.90;100081.09;108828;1253;59638;-75
2024/03/20 05:11:36;;;;;;;12.60;10.20;;;;;;;3.00;91.57;100080.50;108927;1258;59147;-77
2024/03/20 05:14:03;;;;;;;12.90;10.90;;;;;;;3.00;91.84;100085.06;108559;1253;72705;-77
2024/03/20 05:16:31;;;;;;;13.30;10.30;;;;;;;2.98;92.48;100086.48;108053;1253;68808;-76
2024/03/20 05:18:58;;;;;;;12.70;9.70;;;;;;;2.96;92.50;100087.65;108315;1256;71313;-77
2024/03/20 05:21:26;;;;;;;12.70;10.00;;;;;;;3.06;92.34;100091.27;107904;1253;63441;-79
2024/03/20 05:23:53;;;;;;;19.00;12.20;;;;;;;3.17;92.15;100096.30;108413;1253;59378;-79
2024/03/20 05:26:20;;;;;;;18.60;11.40;;;;;;;3.17;92.13;100102.94;108663;1252;74696;-79
2024/03/20 05:28:48;;;;;;;16.10;11.90;;;;;;;3.13;92.46;100100.93;109238;1252;68210;-80
2024/03/20 05:31:30;;;;;;;20.70;12.20;;;;;;;3.13;92.59;100107.59;109145;1253;71680;-79
2024/03/20 05:33:58;;;;;;;17.20;11.90;;;;;;;3.17;91.87;100109.95;109008;1253;62289;-79
2024/03/20 05:36:25;;;;;;;20.50;13.10;;;;;;;3.22;91.98;100113.94;109236;1253;59737;-78
2024/03/20 05:38:52;;;;;;;23.10;15.30;;;;;;;3.23;92.03;100115.92;109088;1253;73215;-79
2024/03/20 05:41:19;;;;;;;23.00;15.10;;;;;;;3.24;92.63;100114.85;109139;1252;71985;-78
2024/03/20 05:43:47;;;;;;;21.50;14.10;;;;;;;3.23;92.21;100117.69;109143;1253;71389;-77
2024/03/20 05:46:14;;;;;;;20.10;14.00;;;;;;;3.30;91.91;100124.17;107357;1254;61090;-78
2024/03/20 05:48:42;;;;;;;19.00;13.20;;;;;;;3.42;91.81;100125.25;106484;1253;61298;-80
2024/03/20 05:51:10;;;;;;;19.00;12.30;;;;;;;3.42;91.68;100125.41;106638;1256;73339;-79
2024/03/20 05:53:37;;;;;;;16.30;11.90;;;;;;;3.36;91.77;100124.48;106977;1253;71402;-79
2024/03/20 05:56:05;;;;;;;14.20;11.20;;;;;;;3.32;91.86;100128.07;106562;1254;72875;-77
2024/03/20 05:58:32;;;;;;;14.00;9.70;;;;;;;3.36;91.23;100127.11;106509;1253;61202;-79
2024/03/20 06:01:00;;;;;;;16.40;10.00;;;;;;;3.35;90.55;100126.60;106427;1253;61308;-79
2024/03/20 06:03:27;;;;;;;16.30;10.20;;;;;;;3.27;90.36;100122.86;106828;1253;72869;-79
2024/03/20 06:05:55;;;;;;;16.30;10.60;;;;;;;3.21;90.98;100117.48;106733;1253;70165;-79
2024/03/20 06:08:23;;;;;;;15.70;10.00;;;;;;;3.18;91.08;100116.68;106587;1258;72641;-76
2024/03/20 06:10:51;;;;;;;13.60;10.00;;;;;;;3.24;90.73;100111.36;106546;1252;61333;-75
2024/03/20 06:13:19;;;;;;;16.60;11.00;;;;;;;3.32;90.57;100108.63;106050;1258;61202;-77
2024/03/20 06:15:47;;;;;;;15.90;12.00;;;;;;;3.31;90.33;100109.04;106466;1253;73395;-78
2024/03/20 06:18:14;;;;;;;19.50;12.30;;;;;;;3.28;90.26;100111.23;106815;1253;69047;-80
2024/03/20 06:20:42;;;;;;;18.20;13.40;;;;;;;3.27;90.68;100108.69;106579;1253;73806;-79
2024/03/20 06:23:09;;;;;;;16.70;12.90;;;;;;;3.35;90.28;100110.03;106367;1253;61331;-78
2024/03/20 06:25:36;;;;;;;15.10;10.50;;;;;;;3.46;90.19;100108.52;106528;1252;61237;-79
2024/03/20 06:28:03;;;;;;;14.40;10.00;;;;;;;3.48;89.98;100103.77;107279;1253;74731;-76
2024/03/20 06:30:31;;;;;;;15.20;10.30;;;;;;;3.54;90.75;100104.57;108632;1251;70334;-77
2024/03/20 06:32:59;;;;;;;12.90;9.90;;;;;;;3.63;90.71;100105.70;107343;1253;71584;-76
2024/03/20 06:35:28;;;;;;;14.30;9.50;;;;;;;3.79;90.56;100113.55;106377;1255;61285;-76
2024/03/20 06:37:55;;;;;;;17.80;10.90;;;;;;;3.91;89.39;100110.94;106977;1257;61139;-76
2024/03/20 06:40:31;;;;;;;15.00;11.10;;;;;;;3.94;89.69;100113.50;107190;1259;75509;-79
2024/03/20 06:42:59;;;;;;;14.70;12.50;;;;;;;3.94;89.59;100120.67;106242;1253;70831;-79
2024/03/20 06:45:31;;;;;;;15.60;12.10;;;;;;;3.94;89.59;100123.64;106414;1254;74640;-78
2024/03/20 06:47:59;;;;;;;18.50;12.90;;;;;;;3.95;89.28;100129.56;106428;1253;61144;-78
2024/03/20 06:50:29;;;;;;;16.00;11.90;;;;;;;4.06;89.07;100132.27;107339;1253;61101;-77
2024/03/20 06:52:57;;;;;;;15.70;11.00;;;;;;;4.10;88.38;100133.85;107432;1254;74846;-79
2024/03/20 06:55:26;;;;;;;15.20;10.80;;;;;;;4.04;87.91;100134.30;106669;1258;70054;-80
2024/03/20 06:57:53;;;;;;;14.20;11.20;;;;;;;4.03;88.65;100139.46;107420;1253;73621;-79
2024/03/20 07:00:22;;;;;;;11.10;8.00;;;;;;;4.03;88.27;100139.14;106465;1253;60326;-77
2024/03/20 07:02:50;;;;;;;8.50;6.90;;;;;;;4.07;87.58;100139.15;107235;1255;61192;-76
2024/03/20 07:05:17;;;;;;;9.60;7.10;;;;;;;4.10;86.82;100132.29;106470;1253;74657;-79
2024/03/20 07:07:45;;;;;;;8.80;6.50;;;;;;;4.05;86.67;100130.52;106641;1253;71029;-78
2024/03/20 07:10:13;;;;;;;10.20;6.70;;;;;;;3.98;86.34;100132.11;106297;1259;72578;-77
2024/03/20 07:12:40;;;;;;;8.30;6.90;;;;;;;3.91;86.05;100136.18;106206;1253;61366;-78
2024/03/20 07:15:09;;;;;;;10.20;8.30;;;;;;;3.85;86.06;100144.83;106240;1253;61353;-79
2024/03/20 07:17:37;;;;;;;9.80;7.00;;;;;;;3.89;85.81;100146.33;106694;1257;74060;-78
2024/03/20 07:20:07;;;;;;;9.70;6.90;;;;;;;3.93;85.55;100149.14;106898;1253;71253;-77
2024/03/20 07:22:44;;;;;;;9.90;6.60;;;;;;;3.88;85.11;100148.27;107031;1256;75326;-78
2024/03/20 07:25:13;;;;;;;10.50;6.00;;;;;;;3.82;84.92;100149.48;108307;1253;59617;-78
2024/03/20 07:27:41;;;;;;;9.90;6.50;;;;;;;3.71;84.80;100146.90;108229;1253;59449;-76
2024/03/20 07:30:11;;;;;;;6.80;6.00;;;;;;;3.63;85.01;100147.39;107075;1253;76179;-78
2024/03/20 07:32:40;;;;;;;7.30;6.40;;;;;;;3.61;84.55;100144.52;106804;1254;72493;-75
2024/03/20 07:35:07;;;;;;;7.70;6.10;;;;;;;3.69;84.51;100146.92;106353;1256;72815;-79
2024/03/20 07:37:34;;;;;;;8.70;6.50;;;;;;;3.65;84.34;100149.16;107229;1259;62025;-79
2024/03/20 07:40:04;;;;;;;9.10;7.10;;;;;;;3.55;84.48;100148.30;106625;1253;61407;-81
2024/03/20 07:42:32;;;;;;;9.20;6.70;;;;;;;3.42;84.31;100150.13;106363;1260;76888;-79
2024/03/20 07:45:00;;;;;;;11.20;8.30;;;;;;;3.29;84.35;100150.54;106530;1253;71175;-78
2024/03/20 07:47:28;;;;;;;11.00;7.20;;;;;;;3.26;84.43;100149.84;106541;1257;71800;-78
2024/03/20 07:49:55;;;;;;;9.60;7.20;;;;;;;3.28;84.69;100150.48;106357;1257;62330;-77
2024/03/20 07:52:23;;;;;;;9.70;7.50;;;;;;;3.26;85.03;100147.77;106093;1259;62468;-77
2024/03/20 07:54:54;;;;;;;11.20;8.10;;;;;;;3.22;85.23;100149.63;106253;1259;76793;-75
2024/03/20 07:57:22;;;;;;;12.20;8.90;;;;;;;3.19;85.22;100151.64;106514;1258;71223;-76
2024/03/20 07:59:49;;;;;;;10.80;8.40;;;;;;;3.21;85.50;100146.92;106750;1259;72692;-77
2024/03/20 08:02:16;;;;;;;13.60;9.90;;;;;;;3.27;85.32;100142.61;106514;1257;61099;-76
2024/03/20 08:04:44;;;;;;;12.00;9.00;;;;;;;3.28;85.78;100139.23;106270;1258;61198;-74
2024/03/20 08:07:11;;;;;;;13.80;9.50;;;;;;;3.28;86.22;100138.52;106148;1257;77913;-79
2024/03/20 08:09:39;;;;;;;13.50;9.00;;;;;;;3.32;86.33;100133.16;105971;1253;72640;-76
2024/03/20 08:12:07;;;;;;;12.60;9.40;;;;;;;3.40;86.34;100138.91;106054;1253;73434;-75
2024/03/20 08:14:34;;;;;;;12.70;8.60;;;;;;;3.54;86.09;100138.73;106105;1253;61858;-75
2024/03/20 08:17:02;;;;;;;12.30;9.50;;;;;;;3.62;85.45;100136.58;106228;1257;61136;-76
2024/03/20 08:19:29;;;;;;;12.40;9.30;;;;;;;3.64;85.77;100135.54;106481;1259;75443;-76
2024/03/20 08:21:57;;;;;;;13.80;10.20;;;;;;;3.70;85.90;100132.66;106765;1258;69389;-75
2024/03/20 08:24:25;;;;;;;13.00;9.70;;;;;;;3.76;85.61;100126.81;107018;1253;73383;-76
2024/03/20 08:26:52;;;;;;;13.80;9.70;;;;;;;3.87;85.19;100132.26;106302;1254;61203;-77
2024/03/20 08:29:19;;;;;;;12.40;8.60;;;;;;;3.97;85.15;100127.16;106064;1253;62131;-76
2024/03/20 08:31:47;;;;;;;15.30;9.30;;;;;;;3.98;84.98;100123.36;106022;1259;76324;-75
2024/03/20 08:34:16;;;;;;;15.90;11.60;;;;;;;4.01;85.49;100123.70;106084;1259;69377;-74
2024/03/20 08:36:44;;;;;;;14.20;9.70;;;;;;;4.05;85.49;100123.20;106259;1254;71213;-74
2024/03/20 08:39:12;;;;;;;15.50;10.10;;;;;;;4.06;85.01;100124.84;106070;1254;62830;-77
2024/03/20 08:41:39;;;;;;;11.40;9.00;;;;;;;4.19;84.76;100126.70;106025;1253;61693;-77
2024/03/20 08:44:08;;;;;;;10.30;8.70;;;;;;;4.29;84.42;100125.24;106298;1254;73651;-76
2024/03/20 08:46:41;;;;;;;12.90;9.90;;;;;;;4.26;83.98;100127.89;106167;1259;70496;-76
2024/03/20 08:49:08;;;;;;;14.50;9.70;;;;;;;4.24;84.26;100127.91;106288;1253;74819;-80
2024/03/20 08:51:36;;;;;;;12.70;9.30;;;;;;;4.23;84.41;100123.05;106128;1259;61362;-78
2024/03/20 08:54:04;;;;;;;14.20;9.10;;;;;;;4.25;84.10;100126.00;106101;1257;62357;-76
2024/03/20 08:56:31;;;;;;;11.70;9.00;;;;;;;4.32;83.93;100124.98;106097;1258;73563;-79
2024/03/20 08:58:59;;;;;;;12.60;8.40;;;;;;;4.42;83.97;100124.39;106219;1260;72988;-78
2024/03/20 09:01:26;;;;;;;10.50;7.60;;;;;;;4.45;83.90;100123.48;106155;1256;74894;-79
2024/03/20 09:03:54;;;;;;;11.10;9.60;;;;;;;4.45;83.38;100134.17;106152;1253;61537;-77
2024/03/20 09:06:22;;;;;;;9.10;7.20;;;;;;;4.42;83.18;100139.83;105995;1254;61362;-78
2024/03/20 09:08:50;;;;;;;9.40;7.30;;;;;;;4.39;82.81;100138.12;105875;1259;74625;-78
2024/03/20 09:11:18;;;;;;;11.10;7.90;;;;;;;4.41;82.34;100137.06;106173;1253;70309;-78
2024/03/20 09:13:46;;;;;;;10.00;8.20;;;;;;;4.40;82.33;100139.61;106427;1254;72457;-79
2024/03/20 09:16:14;;;;;;;14.70;8.80;;;;;;;4.37;82.49;100144.06;107292;1255;61141;-78
2024/03/20 09:18:41;;;;;;;12.50;8.80;;;;;;;4.31;82.72;100144.69;107653;1254;61408;-77
2024/03/20 09:21:09;;;;;;;11.20;8.60;;;;;;;4.27;82.93;100137.46;106781;1257;75763;-76
2024/03/20 09:23:38;;;;;;;13.50;8.70;;;;;;;4.25;82.97;100134.49;106310;1259;72132;-76
2024/03/20 09:26:06;;;;;;;11.50;9.60;;;;;;;4.32;82.78;100128.84;106332;1257;73660;-76
2024/03/20 09:28:33;;;;;;;10.50;9.20;;;;;;;4.40;82.38;100132.45;106163;1253;62345;-75
2024/03/20 09:31:01;;;;;;;12.00;9.00;;;;;;;4.37;82.41;100130.60;106867;1257;61301;-76
2024/03/20 09:33:28;;;;;;;13.90;10.30;;;;;;;4.33;82.62;100133.86;106841;1254;74957;-78
2024/03/20 09:35:57;;;;;;;15.20;10.80;;;;;;;4.31;83.01;100132.59;106810;1254;72297;-76
2024/03/20 09:38:24;;;;;;;15.50;11.10;;;;;;;4.32;82.93;100131.79;106202;1260;74713;-78
2024/03/20 09:40:52;;;;;;;13.60;9.90;;;;;;;4.40;82.48;100125.77;106046;1255;62474;-78
2024/03/20 09:43:19;;;;;;;11.80;8.90;;;;;;;4.47;82.33;100128.38;105969;1253;61499;-78
2024/03/20 09:45:48;;;;;;;10.20;7.70;;;;;;;4.43;82.30;100128.52;106262;1259;74935;-77
2024/03/20 09:48:15;;;;;;;12.20;9.30;;;;;;;4.35;82.69;100126.84;106460;1258;70772;-78
2024/03/20 09:51:03;;;;;;;12.20;8.50;;;;;;;4.30;83.09;100130.39;106257;1256;73635;-78
2024/03/20 09:53:34;;;;;;;10.00;7.60;;;;;;;4.28;82.99;100128.47;106913;1254;61126;-78
2024/03/20 09:56:09;;;;;;;9.30;7.20;;;;;;;4.29;82.91;100125.89;106277;1258;61168;-76
2024/03/20 09:58:38;;;;;;;10.80;7.60;;;;;;;4.32;83.11;100127.95;106333;1256;74064;-77
2024/03/20 10:01:13;;;;;;;12.60;7.70;;;;;;;4.26;83.22;100127.57;105931;1253;73041;-76
2024/03/20 10:03:41;;;;;;;9.80;7.40;;;;;;;4.20;83.81;100127.00;106334;1258;73698;-75
2024/03/20 10:06:08;;;;;;;10.10;6.80;;;;;;;4.13;83.76;100127.29;106065;1259;61548;-79
2024/03/20 10:08:39;;;;;;;9.30;7.10;;;;;;;4.09;83.92;100121.69;106298;1254;61256;-74
2024/03/20 10:11:09;;;;;;;8.60;7.30;;;;;;;4.13;84.01;100120.99;106221;1259;76917;-76
2024/03/20 10:13:40;;;;;;;12.90;8.70;;;;;;;4.20;84.17;100121.20;106814;1259;71396;-77
2024/03/20 10:16:08;;;;;;;11.50;8.60;;;;;;;4.19;84.30;100120.90;106608;1253;72800;-75
2024/03/20 10:18:52;;;;;;;10.10;8.20;;;;;;;4.11;84.46;100120.77;106244;1256;61225;-78
2024/03/20 10:21:20;;;;;;;10.40;8.10;;;;;;;4.09;85.20;100115.72;106428;1257;60229;-78
2024/03/20 10:23:52;;;;;;;10.00;7.80;;;;;;;4.10;85.52;100116.83;106499;1254;76736;-76
2024/03/20 10:26:20;;;;;;;8.80;7.30;;;;;;;4.24;85.46;100117.85;106634;1254;72366;-74
2024/03/20 10:28:49;;;;;;;9.10;7.30;;;;;;;4.39;85.16;100114.41;106660;1255;71382;-78
2024/03/20 10:31:19;;;;;;;8.30;6.80;;;;;;;4.43;85.24;100109.19;106682;1254;62128;-75
2024/03/20 10:33:57;;;;;;;10.00;7.30;;;;;;;4.42;85.14;100106.86;106338;1257;61576;-78
2024/03/20 10:36:24;;;;;;;10.70;7.60;;;;;;;4.37;85.09;100104.77;106973;1259;73803;-76
2024/03/20 10:38:52;;;;;;;7.80;6.70;;;;;;;4.34;85.14;100106.92;107464;1259;71241;-77
2024/03/20 10:41:19;;;;;;;7.30;6.30;;;;;;;4.42;85.01;100106.35;106368;1260;71415;-77
2024/03/20 10:43:47;;;;;;;7.70;5.80;;;;;;;4.53;85.70;100103.56;106470;1257;61402;-76
2024/03/20 10:46:14;;;;;;;8.70;6.60;;;;;;;4.57;85.65;100101.45;106345;1258;62233;-76
2024/03/20 10:48:42;;;;;;;7.90;6.50;;;;;;;4.57;85.47;100097.59;106467;1257;74967;-77
2024/03/20 10:51:14;;;;;;;10.00;7.10;;;;;;;4.52;85.17;100095.71;106427;1259;73298;-73
2024/03/20 10:53:41;;;;;;;9.50;6.10;;;;;;;4.53;85.55;100094.04;106382;1260;72211;-76
2024/03/20 10:56:18;;;;;;;7.80;6.00;;;;;;;4.62;85.32;100093.94;106326;1254;61321;-77
2024/03/20 10:59:01;;;;;;;7.60;5.60;;;;;;;4.63;85.54;100085.21;106612;1257;61151;-77
2024/03/20 11:01:28;;;;;;;8.30;6.60;;;;;;;4.59;85.51;100080.10;106245;1261;74882;-75
2024/03/20 11:03:56;;;;;;;10.10;7.00;;;;;;;4.53;85.68;100078.98;106391;1260;72583;-73
2024/03/20 11:06:28;;;;;;;11.00;9.50;;;;;;;4.55;85.78;100075.30;106476;1257;73802;-77
2024/03/20 11:08:56;;;;;;;9.60;8.10;;;;;;;4.63;85.63;100072.21;106625;1258;61287;-73
2024/03/20 11:11:30;;;;;;;9.80;8.10;;;;;;;4.60;85.32;100068.95;106939;1257;62263;-75
2024/03/20 11:14:11;;;;;;;8.10;6.80;;;;;;;4.57;86.16;100063.98;106650;1262;77124;-75
2024/03/20 11:16:39;;;;;;;8.70;7.20;;;;;;;4.55;86.31;100061.98;106280;1259;69880;-73
2024/03/20 11:19:09;;;;;;;9.00;6.50;;;;;;;4.51;86.51;100056.31;106268;1259;71690;-74
2024/03/20 11:21:36;;;;;;;9.60;6.00;;;;;;;4.59;86.36;100058.87;107448;1256;63491;-79
2024/03/20 11:24:04;;;;;;;8.40;6.60;;;;;;;4.65;86.44;100059.61;106780;1258;61208;-79